Time;durP1;ratioP1;P1;durP2;ratioP2;P2;SDS_P1;SDS_P2;PMS_P1;PMS_P2;Temp;Humidity;BMP_temperature;BMP_pressure;BME280_temperature;BME280_humidity;BME280_pressure;Samples;Min_cycle;Max_cycle;Signal;HPM_P1;HPM_P2
2023/08/09 00:00:56;;;;;;;1.67;0.63;;;;;;;24.88;35.23;98727.94;2089020;28;20048;-47
2023/08/09 00:01:57;;;;;;;1.23;0.70;;;;;;;24.87;35.33;98729.00;2088625;28;20173;-51
2023/08/09 00:02:59;;;;;;;1.02;0.60;;;;;;;24.86;35.42;98730.88;2080485;28;20053;-51
2023/08/09 00:04:01;;;;;;;2.03;0.82;;;;;;;24.88;35.76;98730.66;2083975;28;20049;-49
2023/08/09 00:05:05;;;;;;;1.20;0.73;;;;;;;24.80;34.83;98728.34;2089914;28;20056;-50
2023/08/09 00:06:06;;;;;;;2.08;0.40;;;;;;;24.72;34.39;98726.81;2088175;28;20045;-52
2023/08/09 00:07:08;;;;;;;2.25;0.20;;;;;;;24.68;35.03;98731.91;2088381;28;20216;-48
2023/08/09 00:08:08;;;;;;;4.55;0.82;;;;;;;24.69;34.46;98733.56;2085065;28;20040;-49
2023/08/09 00:09:09;;;;;;;5.65;1.00;;;;;;;24.71;35.42;98734.13;2087948;28;20321;-48
2023/08/09 00:10:11;;;;;;;2.05;0.80;;;;;;;24.68;35.29;98731.06;2086805;28;20140;-48
2023/08/09 00:11:12;;;;;;;0.95;0.52;;;;;;;24.66;35.15;98736.75;2088595;28;20068;-48
2023/08/09 00:12:13;;;;;;;0.55;0.40;;;;;;;24.65;35.23;98731.53;2086745;28;20414;-49
2023/08/09 00:13:16;;;;;;;1.00;0.50;;;;;;;24.66;35.26;98725.91;2087662;28;20109;-47
2023/08/09 00:14:16;;;;;;;1.00;0.45;;;;;;;24.67;35.31;98734.84;2087434;28;20087;-47
2023/08/09 00:15:19;;;;;;;1.63;0.60;;;;;;;24.61;34.71;98738.53;2087438;28;20045;-50
2023/08/09 00:16:19;;;;;;;1.65;1.02;;;;;;;24.55;34.39;98737.59;2087735;28;20443;-48
2023/08/09 00:17:21;;;;;;;1.15;0.70;;;;;;;24.53;35.55;98732.41;2087660;28;20510;-48
2023/08/09 00:18:23;;;;;;;0.90;0.50;;;;;;;24.55;35.50;98731.38;2087061;28;20068;-47
2023/08/09 00:19:26;;;;;;;1.60;0.80;;;;;;;24.57;35.93;98730.03;2088532;28;20149;-50
2023/08/09 00:20:27;;;;;;;2.83;0.40;;;;;;;24.58;35.60;98731.69;2079239;28;20063;-54
2023/08/09 00:21:29;;;;;;;2.65;1.08;;;;;;;24.57;35.24;98729.22;2086983;28;20577;-49
2023/08/09 00:22:30;;;;;;;2.03;0.90;;;;;;;24.58;35.13;98737.13;2088809;28;20540;-49
2023/08/09 00:23:32;;;;;;;1.40;0.50;;;;;;;24.57;35.30;98732.75;2087087;28;20351;-48
2023/08/09 00:24:33;;;;;;;1.85;0.70;;;;;;;24.56;35.67;98735.72;2086370;28;20152;-49
2023/08/09 00:25:35;;;;;;;3.15;0.60;;;;;;;24.53;34.87;98734.31;2087343;28;20048;-49
2023/08/09 00:26:36;;;;;;;1.95;0.57;;;;;;;24.55;35.60;98740.31;2086866;28;20045;-47
2023/08/09 00:27:38;;;;;;;0.98;0.52;;;;;;;24.51;35.15;98736.41;2087959;28;20040;-48
2023/08/09 00:28:39;;;;;;;2.08;0.50;;;;;;;24.54;35.46;98741.38;2089101;28;20083;-50
2023/08/09 00:29:40;;;;;;;2.17;0.40;;;;;;;24.49;35.62;98735.84;2085167;28;20267;-47
2023/08/09 00:30:41;;;;;;;0.73;0.60;;;;;;;24.46;35.72;98733.59;2088274;28;20055;-47
2023/08/09 00:31:43;;;;;;;1.20;0.55;;;;;;;24.50;35.41;98732.06;2087438;28;20056;-48
2023/08/09 00:32:44;;;;;;;4.55;1.38;;;;;;;24.51;35.77;98736.41;2087436;28;20060;-49
2023/08/09 00:33:46;;;;;;;4.25;0.60;;;;;;;24.51;35.56;98733.72;2086685;28;20037;-48
2023/08/09 00:34:48;;;;;;;1.88;0.57;;;;;;;24.51;35.71;98737.25;2089053;28;22192;-47
2023/08/09 00:35:50;;;;;;;0.50;0.40;;;;;;;24.50;35.50;98738.31;2086852;28;20059;-47
2023/08/09 00:36:51;;;;;;;0.90;0.60;;;;;;;24.51;35.64;98728.28;2081897;28;21020;-48
2023/08/09 00:37:53;;;;;;;1.40;0.73;;;;;;;24.50;35.55;98737.50;2086294;28;20427;-48
2023/08/09 00:38:53;;;;;;;1.70;0.52;;;;;;;24.48;35.52;98735.00;2087169;28;20076;-49
2023/08/09 00:39:55;;;;;;;1.23;0.70;;;;;;;24.50;35.47;98734.78;2087188;28;20045;-50
2023/08/09 00:40:56;;;;;;;1.40;0.65;;;;;;;24.47;35.75;98729.84;2086961;28;20056;-51
2023/08/09 00:41:58;;;;;;;4.05;0.73;;;;;;;24.49;36.26;98730.44;2087520;28;21306;-47
2023/08/09 00:42:59;;;;;;;3.75;0.90;;;;;;;24.48;35.99;98731.47;2087703;28;20132;-49
2023/08/09 00:44:02;;;;;;;1.30;0.65;;;;;;;24.48;35.60;98735.00;2088345;28;20132;-49
2023/08/09 00:45:04;;;;;;;1.98;0.95;;;;;;;24.49;35.56;98733.16;2087657;28;20049;-49
2023/08/09 00:46:06;;;;;;;5.47;0.77;;;;;;;24.50;35.47;98729.34;2086744;28;20045;-50
2023/08/09 00:47:07;;;;;;;1.95;0.50;;;;;;;24.53;35.63;98726.97;2086117;28;20041;-48
2023/08/09 00:48:09;;;;;;;0.77;0.57;;;;;;;24.56;35.95;98731.09;2088095;28;20044;-47
2023/08/09 00:49:10;;;;;;;1.20;0.40;;;;;;;24.57;35.90;98734.63;2085578;28;20518;-47
2023/08/09 00:50:13;;;;;;;1.77;0.63;;;;;;;24.57;35.32;98735.44;2087874;28;20063;-50
2023/08/09 00:51:14;;;;;;;1.00;0.50;;;;;;;24.54;35.99;98735.94;2081189;28;20099;-48
2023/08/09 00:52:18;;;;;;;1.80;1.17;;;;;;;24.53;35.77;98734.31;2078712;28;20140;-47
2023/08/09 00:53:20;;;;;;;0.70;0.50;;;;;;;24.52;35.31;98732.66;2078252;28;20053;-48
2023/08/09 00:54:23;;;;;;;1.00;0.90;;;;;;;24.54;35.99;98735.94;2072639;28;20036;-49
2023/08/09 00:55:24;;;;;;;0.43;0.40;;;;;;;24.56;35.86;98739.25;2077164;28;20141;-48
2023/08/09 00:56:26;;;;;;;1.35;0.60;;;;;;;24.56;36.08;98733.81;2087014;28;20048;-47
2023/08/09 00:57:27;;;;;;;2.97;0.60;;;;;;;24.57;35.38;98738.16;2086071;28;20153;-51
2023/08/09 00:58:29;;;;;;;1.35;1.13;;;;;;;24.58;35.52;98737.13;2088741;28;20491;-48
2023/08/09 00:59:30;;;;;;;1.40;0.85;;;;;;;24.58;35.60;98739.00;2088766;28;20072;-48
2023/08/09 01:00:32;;;;;;;0.90;0.65;;;;;;;24.53;35.78;98737.84;2088231;28;20414;-48
2023/08/09 01:01:33;;;;;;;2.10;0.77;;;;;;;24.56;35.48;98738.41;2088162;28;20079;-49
2023/08/09 01:02:35;;;;;;;1.85;0.82;;;;;;;24.57;35.28;98740.88;2088991;28;20055;-47
2023/08/09 01:03:36;;;;;;;1.98;0.90;;;;;;;24.59;35.79;98738.75;2088141;28;20052;-48
2023/08/09 01:04:39;;;;;;;0.57;0.45;;;;;;;24.59;35.55;98737.94;2086638;28;20522;-48
2023/08/09 01:05:50;;;;;;;1.08;0.75;;;;;;;24.55;35.97;98737.59;2088640;28;20534;-49
2023/08/09 01:06:57;;;;;;;3.45;1.30;;;;;;;24.54;35.96;98744.06;2088228;28;20052;-48
2023/08/09 01:08:07;;;;;;;3.25;0.57;;;;;;;24.52;35.65;98741.63;2086476;28;20072;-48
2023/08/09 01:09:15;;;;;;;0.50;0.50;;;;;;;24.54;35.57;98741.38;2087534;28;20044;-49
2023/08/09 01:10:23;;;;;;;1.88;0.63;;;;;;;24.55;35.55;98742.22;2086914;28;20537;-48
2023/08/09 01:11:30;;;;;;;0.43;0.40;;;;;;;24.58;36.07;98742.53;2088767;28;20132;-49
2023/08/09 01:12:39;;;;;;;3.70;0.50;;;;;;;24.57;35.98;98749.00;2079828;28;20120;-49
2023/08/09 01:13:42;;;;;;;2.15;0.80;;;;;;;24.57;35.88;98746.31;2085275;28;20145;-47
2023/08/09 01:14:46;;;;;;;1.48;0.47;;;;;;;24.58;35.65;98742.53;2087871;28;20606;-50
2023/08/09 01:15:50;;;;;;;0.98;0.75;;;;;;;24.53;36.12;98743.25;2087895;28;20415;-52
2023/08/09 01:16:54;;;;;;;3.70;0.80;;;;;;;24.55;35.85;98748.44;2087710;28;20056;-49
2023/08/09 01:17:55;;;;;;;1.98;0.75;;;;;;;24.52;36.35;98743.50;2087495;28;20359;-48
2023/08/09 01:19:00;;;;;;;2.60;0.60;;;;;;;24.49;35.73;98750.22;2088147;28;20503;-49
2023/08/09 01:20:01;;;;;;;1.75;0.80;;;;;;;24.47;35.71;98746.94;2087104;28;20080;-48
2023/08/09 01:21:05;;;;;;;2.17;1.63;;;;;;;24.46;35.96;98739.88;2086141;28;20147;-48
2023/08/09 01:22:13;;;;;;;0.85;0.60;;;;;;;24.44;35.54;98744.69;2088350;28;20549;-49
2023/08/09 01:23:18;;;;;;;1.27;0.63;;;;;;;24.47;36.08;98740.69;2086774;28;20105;-47
2023/08/09 01:24:20;;;;;;;2.28;0.82;;;;;;;24.48;36.02;98743.16;2087442;28;20090;-49
2023/08/09 01:25:22;;;;;;;0.93;0.68;;;;;;;24.46;35.92;98739.88;2087982;28;20478;-48
2023/08/09 01:26:24;;;;;;;2.45;0.50;;;;;;;24.51;36.25;98739.13;2089414;28;21412;-48
2023/08/09 01:27:26;;;;;;;4.45;0.85;;;;;;;24.51;35.99;98736.41;2088211;28;20053;-51
2023/08/09 01:28:26;;;;;;;5.00;0.70;;;;;;;24.50;36.10;98734.78;2085518;28;20056;-49
2023/08/09 01:29:28;;;;;;;1.48;0.60;;;;;;;24.49;35.71;98744.00;2084950;28;20323;-48
2023/08/09 01:30:29;;;;;;;1.40;0.57;;;;;;;24.47;35.89;98737.97;2083095;28;20722;-47
2023/08/09 01:31:31;;;;;;;3.03;0.40;;;;;;;24.40;36.17;98735.34;2086786;28;20052;-47
2023/08/09 01:32:32;;;;;;;2.25;0.65;;;;;;;24.40;36.35;98731.81;2081489;28;20422;-48
2023/08/09 01:33:33;;;;;;;2.08;0.82;;;;;;;24.39;36.43;98732.91;2075068;28;20167;-49
2023/08/09 01:34:37;;;;;;;0.50;0.43;;;;;;;24.37;36.24;98733.13;2079711;28;20583;-48
2023/08/09 01:35:42;;;;;;;0.75;0.73;;;;;;;24.34;36.11;98730.88;2087416;28;20052;-47
2023/08/09 01:36:47;;;;;;;2.33;1.27;;;;;;;24.35;36.29;98721.72;2087736;28;20076;-50
2023/08/09 01:37:52;;;;;;;0.80;0.70;;;;;;;24.38;35.99;98731.25;2087800;28;20048;-52
2023/08/09 01:38:58;;;;;;;1.30;0.73;;;;;;;24.42;35.90;98729.69;2084652;28;20098;-47
2023/08/09 01:40:08;;;;;;;0.55;0.47;;;;;;;24.43;36.48;98728.63;2086194;28;20761;-48
2023/08/09 01:41:10;;;;;;;2.45;0.90;;;;;;;24.45;36.28;98730.06;2088348;28;20076;-48
2023/08/09 01:42:11;;;;;;;0.80;0.45;;;;;;;24.52;36.26;98729.94;2086828;28;20503;-48
2023/08/09 01:43:13;;;;;;;2.60;0.75;;;;;;;24.55;36.56;98736.78;2088780;28;20053;-51
2023/08/09 01:44:17;;;;;;;2.78;0.52;;;;;;;24.56;35.86;98728.41;2086024;28;20147;-47
2023/08/09 01:45:19;;;;;;;1.70;1.08;;;;;;;24.57;35.95;98727.31;2087096;28;20485;-49
2023/08/09 01:46:22;;;;;;;1.27;0.65;;;;;;;24.55;36.04;98726.75;2088178;28;20159;-50
2023/08/09 01:47:23;;;;;;;2.97;0.50;;;;;;;24.55;35.83;98736.78;2087114;28;20481;-48
2023/08/09 01:48:24;;;;;;;1.33;0.77;;;;;;;24.51;35.94;98729.09;2080488;28;20311;-49
2023/08/09 01:49:26;;;;;;;1.85;0.70;;;;;;;24.49;36.08;98727.72;2087012;28;20365;-49
2023/08/09 01:50:28;;;;;;;0.80;0.47;;;;;;;24.47;36.07;98725.25;2084610;28;20140;-48
2023/08/09 01:51:29;;;;;;;2.35;0.57;;;;;;;24.44;36.91;98731.16;2089516;28;20072;-47
2023/08/09 01:52:31;;;;;;;1.00;0.57;;;;;;;24.42;36.09;98727.00;2080080;28;20423;-48
2023/08/09 01:53:32;;;;;;;0.75;0.50;;;;;;;24.36;36.49;98722.53;2083393;28;20055;-48
2023/08/09 01:54:34;;;;;;;0.75;0.35;;;;;;;24.33;36.50;98728.44;2086837;28;20498;-48
2023/08/09 01:55:38;;;;;;;1.23;0.80;;;;;;;24.33;36.57;98723.00;2089573;28;20058;-47
2023/08/09 01:56:40;;;;;;;1.67;0.43;;;;;;;24.33;36.63;98723.00;2088054;28;20041;-48
2023/08/09 01:57:41;;;;;;;3.40;0.63;;;;;;;24.38;36.17;98731.25;2089043;28;20082;-48
2023/08/09 01:58:43;;;;;;;1.33;1.13;;;;;;;24.42;36.44;98724.28;2089271;28;20491;-49
2023/08/09 01:59:44;;;;;;;1.60;0.45;;;;;;;24.48;36.23;98726.06;2088311;28;20048;-47
2023/08/09 02:00:46;;;;;;;1.48;0.50;;;;;;;24.50;36.03;98722.03;2087861;28;20566;-48
2023/08/09 02:01:46;;;;;;;1.40;0.50;;;;;;;24.51;36.39;98717.44;2088544;28;20045;-49
2023/08/09 02:02:49;;;;;;;1.55;0.57;;;;;;;24.55;36.61;98715.91;2088110;28;20502;-49
2023/08/09 02:03:50;;;;;;;2.15;0.75;;;;;;;24.58;36.59;98714.59;2087822;28;20048;-49
2023/08/09 02:04:51;;;;;;;2.75;0.55;;;;;;;24.60;36.08;98718.72;2081440;28;20608;-49
2023/08/09 02:05:52;;;;;;;3.05;0.88;;;;;;;24.62;36.27;98721.19;2085832;28;20068;-48
2023/08/09 02:06:54;;;;;;;0.80;0.50;;;;;;;24.60;36.62;98717.88;2087739;28;20053;-48
2023/08/09 02:07:56;;;;;;;0.73;0.65;;;;;;;24.60;36.32;98718.72;2087107;28;20074;-48
2023/08/09 02:08:58;;;;;;;1.30;1.10;;;;;;;24.64;36.92;98714.47;2088529;28;20079;-47
2023/08/09 02:09:59;;;;;;;1.95;0.68;;;;;;;24.65;36.81;98716.09;2089034;28;20506;-48
2023/08/09 02:11:02;;;;;;;2.80;0.60;;;;;;;24.59;36.32;98721.66;2088817;28;20044;-48
2023/08/09 02:12:03;;;;;;;0.77;0.50;;;;;;;24.56;36.29;98722.16;2087333;28;20040;-48
2023/08/09 02:13:05;;;;;;;5.45;1.60;;;;;;;24.58;36.44;98726.28;2088330;28;20055;-50
2023/08/09 02:14:07;;;;;;;1.60;0.75;;;;;;;24.60;36.33;98716.03;2087748;28;20052;-49
2023/08/09 02:15:08;;;;;;;1.58;0.57;;;;;;;24.66;36.54;98722.38;2088299;28;20044;-52
2023/08/09 02:16:10;;;;;;;3.40;0.82;;;;;;;24.67;36.60;98715.88;2089102;28;20053;-50
2023/08/09 02:17:11;;;;;;;0.95;0.43;;;;;;;24.66;36.10;98723.19;2089845;28;20527;-51
2023/08/09 02:18:13;;;;;;;1.20;0.70;;;;;;;24.65;36.28;98718.00;2087762;28;20631;-51
2023/08/09 02:19:14;;;;;;;0.57;0.40;;;;;;;24.67;36.06;98713.16;2088778;28;20127;-49
2023/08/09 02:20:15;;;;;;;1.55;0.45;;;;;;;24.70;36.19;98713.47;2087657;28;20051;-49
2023/08/09 02:21:17;;;;;;;3.25;0.80;;;;;;;24.69;36.60;98721.88;2081752;28;20105;-49
2023/08/09 02:22:18;;;;;;;2.83;0.65;;;;;;;24.70;36.12;98724.34;2086524;28;20048;-49
2023/08/09 02:23:19;;;;;;;3.72;0.82;;;;;;;24.73;36.47;98715.72;2087527;28;20422;-47
2023/08/09 02:24:23;;;;;;;1.65;0.68;;;;;;;24.72;36.03;98715.97;2081451;28;20144;-48
2023/08/09 02:25:24;;;;;;;3.17;0.60;;;;;;;24.73;36.09;98712.19;2086348;28;20053;-48
2023/08/09 02:26:27;;;;;;;2.15;0.30;;;;;;;24.76;35.95;98714.41;2084848;28;20056;-48
2023/08/09 02:27:28;;;;;;;2.40;0.88;;;;;;;24.77;36.39;98712.50;2087548;28;20040;-48
2023/08/09 02:28:30;;;;;;;0.82;0.52;;;;;;;24.78;36.50;98720.41;2086774;28;20154;-48
2023/08/09 02:29:31;;;;;;;0.75;0.50;;;;;;;24.80;36.18;98721.00;2086811;28;20502;-47
2023/08/09 02:30:33;;;;;;;1.88;0.40;;;;;;;24.81;35.96;98724.53;2087293;28;21180;-48
2023/08/09 02:31:34;;;;;;;1.27;0.40;;;;;;;24.81;35.84;98719.94;2088990;28;20041;-50
2023/08/09 02:32:36;;;;;;;2.67;0.60;;;;;;;24.81;35.95;98719.94;2088630;28;20053;-48
2023/08/09 02:33:38;;;;;;;1.10;0.50;;;;;;;24.81;36.42;98722.66;2086421;28;20442;-49
2023/08/09 02:34:39;;;;;;;2.00;0.60;;;;;;;24.83;36.06;98717.00;2087478;28;20040;-51
2023/08/09 02:35:51;;;;;;;1.40;0.50;;;;;;;24.82;36.49;98721.56;2087909;28;20079;-47
2023/08/09 02:36:54;;;;;;;3.22;0.68;;;;;;;24.83;36.04;98720.53;2088001;28;20487;-47
2023/08/09 02:37:54;;;;;;;1.10;0.40;;;;;;;24.84;36.16;98718.63;2089116;28;20048;-50
2023/08/09 02:38:56;;;;;;;2.70;0.50;;;;;;;24.85;36.44;98712.97;2087838;28;20453;-47
2023/08/09 02:39:58;;;;;;;1.83;0.68;;;;;;;24.85;36.66;98712.97;2080124;28;20048;-47
2023/08/09 02:41:00;;;;;;;1.55;0.63;;;;;;;24.85;35.92;98712.97;2085656;28;20071;-50
2023/08/09 02:42:04;;;;;;;2.25;0.57;;;;;;;24.86;36.50;98705.66;2088828;28;20040;-47
2023/08/09 02:43:04;;;;;;;1.08;0.60;;;;;;;24.81;36.15;98700.13;2086350;28;20053;-47
2023/08/09 02:44:06;;;;;;;1.55;0.73;;;;;;;24.82;36.29;98699.06;2086875;28;20056;-49
2023/08/09 02:45:08;;;;;;;4.65;0.60;;;;;;;24.81;36.57;98698.22;2085888;28;20055;-48
2023/08/09 02:46:10;;;;;;;0.88;0.40;;;;;;;24.73;36.38;98699.44;2086741;28;20079;-48
2023/08/09 02:47:11;;;;;;;1.73;0.75;;;;;;;24.62;36.77;98692.16;2087596;28;20072;-48
2023/08/09 02:48:14;;;;;;;2.65;0.65;;;;;;;24.55;36.70;98694.22;2085396;28;20639;-48
2023/08/09 02:49:14;;;;;;;1.02;0.52;;;;;;;24.48;36.84;98693.53;2088438;28;20086;-48
2023/08/09 02:50:16;;;;;;;1.33;0.73;;;;;;;24.45;36.65;98689.41;2086232;28;20048;-48
2023/08/09 02:51:17;;;;;;;0.52;0.40;;;;;;;24.52;36.77;98689.28;2088869;28;20056;-48
2023/08/09 02:52:19;;;;;;;0.77;0.60;;;;;;;24.50;37.08;98688.69;2088093;28;20431;-50
2023/08/09 02:53:19;;;;;;;1.77;0.70;;;;;;;24.46;36.73;98685.66;2085858;28;20142;-47
2023/08/09 02:54:22;;;;;;;1.95;0.90;;;;;;;24.43;36.74;98680.72;2088434;28;20040;-49
2023/08/09 02:55:23;;;;;;;0.73;0.60;;;;;;;24.42;37.21;98675.47;2082523;28;20522;-50
2023/08/09 02:56:24;;;;;;;2.15;0.60;;;;;;;24.40;37.56;98674.88;2084191;28;20049;-47
2023/08/09 02:57:27;;;;;;;2.20;0.50;;;;;;;24.37;37.60;98678.09;2084467;28;20053;-48
2023/08/09 02:58:28;;;;;;;1.42;0.30;;;;;;;24.33;37.76;98685.06;2087635;28;20144;-47
2023/08/09 02:59:29;;;;;;;1.70;0.70;;;;;;;24.33;37.41;98679.66;2085533;28;20407;-49
2023/08/09 03:00:30;;;;;;;1.60;0.50;;;;;;;24.39;37.41;98678.69;2086776;28;20325;-49
2023/08/09 03:01:33;;;;;;;2.05;0.80;;;;;;;24.34;37.50;98671.25;2086908;28;20045;-49
2023/08/09 03:02:34;;;;;;;1.00;0.50;;;;;;;24.28;37.65;98675.75;2087000;28;20459;-48
2023/08/09 03:03:36;;;;;;;0.43;0.40;;;;;;;24.28;37.34;98670.31;2087980;28;20048;-47
2023/08/09 03:04:37;;;;;;;0.73;0.45;;;;;;;24.34;37.27;98676.69;2086252;28;20114;-48
2023/08/09 03:05:39;;;;;;;0.55;0.40;;;;;;;24.39;37.20;98678.69;2087719;28;20098;-48
2023/08/09 03:06:40;;;;;;;1.08;0.50;;;;;;;24.40;37.26;98683.84;2086601;28;20103;-48
2023/08/09 03:07:42;;;;;;;2.42;0.50;;;;;;;24.43;37.16;98678.00;2086888;28;20098;-47
2023/08/09 03:08:43;;;;;;;1.00;0.32;;;;;;;24.45;37.48;98685.88;2088551;28;20052;-48
2023/08/09 03:09:46;;;;;;;2.58;0.43;;;;;;;24.49;37.46;98678.91;2086306;28;20479;-51
2023/08/09 03:10:47;;;;;;;0.75;0.50;;;;;;;24.52;37.21;98679.25;2084466;28;20052;-47
2023/08/09 03:11:50;;;;;;;1.23;0.80;;;;;;;24.53;37.26;98691.72;2085470;28;20072;-47
2023/08/09 03:12:52;;;;;;;3.00;0.70;;;;;;;24.58;37.34;98682.88;2083398;28;20494;-48
2023/08/09 03:13:54;;;;;;;0.65;0.38;;;;;;;24.53;37.49;98680.06;2085455;28;20053;-50
2023/08/09 03:14:56;;;;;;;0.40;0.40;;;;;;;24.55;37.18;98674.41;2085726;28;20505;-47
2023/08/09 03:15:57;;;;;;;1.20;0.65;;;;;;;24.55;37.44;98682.56;2087067;28;20052;-51
2023/08/09 03:16:58;;;;;;;0.80;0.50;;;;;;;24.53;37.22;98690.91;2086007;28;20044;-48
2023/08/09 03:18:00;;;;;;;1.77;1.27;;;;;;;24.48;37.61;98693.53;2087000;28;20044;-48
2023/08/09 03:19:01;;;;;;;0.45;0.38;;;;;;;24.48;37.27;98693.53;2088830;28;20043;-51
2023/08/09 03:20:09;;;;;;;1.58;0.43;;;;;;;24.46;37.40;98696.50;2087289;28;20135;-48
2023/08/09 03:21:10;;;;;;;0.55;0.55;;;;;;;24.44;37.74;98697.78;2085461;28;20076;-47
2023/08/09 03:22:12;;;;;;;1.67;0.35;;;;;;;24.42;37.61;98700.69;2085254;28;20125;-48
2023/08/09 03:23:13;;;;;;;0.65;0.43;;;;;;;24.42;37.50;98700.69;2087837;28;20036;-48
2023/08/09 03:24:15;;;;;;;0.73;0.45;;;;;;;24.41;37.89;98703.66;2086217;28;20135;-48
2023/08/09 03:25:16;;;;;;;0.63;0.52;;;;;;;24.43;37.45;98704.22;2086436;28;20040;-48
2023/08/09 03:26:18;;;;;;;1.13;0.50;;;;;;;24.48;37.74;98709.78;2087082;28;21289;-49
2023/08/09 03:27:18;;;;;;;2.10;0.40;;;;;;;24.50;37.67;98705.78;2086315;28;20106;-48
2023/08/09 03:28:22;;;;;;;2.05;0.40;;;;;;;24.55;37.48;98709.66;2086754;28;21981;-49
2023/08/09 03:29:23;;;;;;;1.67;0.57;;;;;;;24.55;37.59;98706.97;2081134;28;20145;-48
2023/08/09 03:30:24;;;;;;;5.40;0.65;;;;;;;24.58;37.60;98711.91;2083442;28;20044;-51
2023/08/09 03:31:25;;;;;;;0.82;0.52;;;;;;;24.60;37.69;98716.03;2086606;28;20052;-48
2023/08/09 03:32:27;;;;;;;0.68;0.65;;;;;;;24.62;37.39;98724.72;2084053;28;20434;-48
2023/08/09 03:33:28;;;;;;;0.80;0.68;;;;;;;24.64;37.67;98730.72;2085166;28;28548;-47
2023/08/09 03:34:30;;;;;;;1.27;0.55;;;;;;;24.63;37.42;98731.00;2085613;28;20064;-52
2023/08/09 03:35:31;;;;;;;3.55;0.60;;;;;;;24.62;37.41;98732.84;2089812;28;20336;-48
2023/08/09 03:36:33;;;;;;;1.02;0.70;;;;;;;24.64;37.79;98736.16;2088050;28;20041;-52
2023/08/09 03:37:35;;;;;;;2.20;0.50;;;;;;;24.67;37.56;98735.66;2087144;28;20059;-47
2023/08/09 03:38:37;;;;;;;2.28;0.60;;;;;;;24.67;37.79;98743.00;2086941;28;20083;-48
2023/08/09 03:39:37;;;;;;;3.15;0.63;;;;;;;24.67;37.52;98743.81;2087584;28;20056;-48
2023/08/09 03:40:38;;;;;;;2.58;0.50;;;;;;;24.69;37.57;98755.25;2087604;28;20051;-49
2023/08/09 03:41:42;;;;;;;1.48;0.60;;;;;;;24.69;37.49;98747.09;2085053;28;20529;-48
2023/08/09 03:42:42;;;;;;;1.35;0.63;;;;;;;24.70;37.15;98754.16;2085979;28;20068;-47
2023/08/09 03:43:46;;;;;;;0.70;0.40;;;;;;;24.69;37.73;98749.81;2087457;28;20056;-48
2023/08/09 03:44:47;;;;;;;3.25;0.80;;;;;;;24.68;37.61;98748.19;2087222;28;20514;-48
2023/08/09 03:45:48;;;;;;;0.77;0.30;;;;;;;24.69;37.64;98749.81;2082849;28;20049;-48
2023/08/09 03:46:49;;;;;;;3.95;0.63;;;;;;;24.70;37.46;98756.88;2083795;28;20491;-48
2023/08/09 03:47:52;;;;;;;0.90;0.70;;;;;;;24.68;37.79;98756.31;2086432;28;20283;-47
2023/08/09 03:48:53;;;;;;;2.55;0.57;;;;;;;24.66;37.55;98768.47;2088018;28;20450;-49
2023/08/09 03:49:55;;;;;;;2.05;0.68;;;;;;;24.67;37.26;98770.09;2085894;28;20045;-47
2023/08/09 03:50:55;;;;;;;1.20;0.55;;;;;;;24.69;37.28;98776.94;2085980;28;20057;-49
2023/08/09 03:51:57;;;;;;;2.75;0.60;;;;;;;24.69;37.46;98781.56;2086606;28;20521;-49
2023/08/09 03:52:58;;;;;;;4.28;0.50;;;;;;;24.67;37.43;98789.09;2087668;28;20052;-50
2023/08/09 03:53:59;;;;;;;0.50;0.30;;;;;;;24.67;37.48;98783.66;2086967;28;20072;-51
2023/08/09 03:55:01;;;;;;;1.15;0.63;;;;;;;24.67;37.59;98783.66;2086635;28;20083;-47
2023/08/09 03:56:02;;;;;;;0.88;0.80;;;;;;;24.71;37.54;98779.41;2087207;28;20048;-49
2023/08/09 03:57:06;;;;;;;0.75;0.52;;;;;;;24.68;37.12;98779.88;2087575;28;20328;-50
2023/08/09 03:58:07;;;;;;;1.02;0.50;;;;;;;24.64;37.63;98767.88;2085556;28;20048;-48
2023/08/09 03:59:10;;;;;;;1.92;0.57;;;;;;;24.61;37.63;98774.59;2085851;28;20052;-48
2023/08/09 04:00:17;;;;;;;1.42;1.00;;;;;;;24.57;37.50;98764.47;2085475;28;20052;-48
2023/08/09 04:01:19;;;;;;;3.10;0.60;;;;;;;24.55;37.42;98764.72;2087203;28;20048;-50
2023/08/09 04:02:20;;;;;;;3.67;0.85;;;;;;;24.55;37.38;98767.44;2087347;28;21264;-47
2023/08/09 04:03:22;;;;;;;1.23;0.63;;;;;;;24.54;37.69;98768.47;2088453;28;20040;-48
2023/08/09 04:04:23;;;;;;;1.95;0.47;;;;;;;24.55;37.64;98770.16;2082147;28;20080;-47
2023/08/09 04:05:24;;;;;;;2.38;0.80;;;;;;;24.52;37.58;98768.72;2087352;28;20051;-47
2023/08/09 04:06:25;;;;;;;1.35;0.60;;;;;;;24.48;37.70;98777.56;2088970;28;20044;-48
2023/08/09 04:07:27;;;;;;;0.73;0.50;;;;;;;24.50;37.88;98775.44;2086502;28;20048;-48
2023/08/09 04:08:30;;;;;;;2.03;0.50;;;;;;;24.51;37.92;98772.50;2084873;28;20052;-47
2023/08/09 04:09:32;;;;;;;2.05;1.10;;;;;;;24.55;37.94;98781.00;2087471;28;20729;-48
2023/08/09 04:10:33;;;;;;;1.17;0.52;;;;;;;24.58;37.69;98779.69;2086987;28;20094;-47
2023/08/09 04:11:35;;;;;;;2.38;0.63;;;;;;;24.60;37.70;98782.97;2087552;28;20048;-49
2023/08/09 04:12:36;;;;;;;1.08;0.35;;;;;;;24.64;37.84;98789.56;2083907;28;20056;-48
2023/08/09 04:13:38;;;;;;;0.98;0.57;;;;;;;24.64;37.83;98784.16;2087066;28;20171;-48
2023/08/09 04:14:40;;;;;;;3.67;0.60;;;;;;;24.65;37.82;98778.47;2087541;28;20048;-49
2023/08/09 04:15:41;;;;;;;1.67;0.50;;;;;;;24.67;37.49;98783.66;2084577;28;20051;-48
2023/08/09 04:16:43;;;;;;;1.40;0.95;;;;;;;24.68;37.72;98783.44;2079098;28;20092;-48
2023/08/09 04:17:44;;;;;;;1.60;0.52;;;;;;;24.68;37.75;98780.72;2087273;28;20285;-49
2023/08/09 04:18:45;;;;;;;2.20;1.02;;;;;;;24.68;37.70;98780.72;2086579;28;20049;-47
2023/08/09 04:19:46;;;;;;;2.88;0.70;;;;;;;24.69;37.46;98785.09;2085783;28;20076;-48
2023/08/09 04:20:49;;;;;;;3.47;0.75;;;;;;;24.73;37.37;98788.13;2081967;28;20053;-48
2023/08/09 04:21:50;;;;;;;1.73;0.80;;;;;;;24.71;37.34;98777.53;2087311;28;20068;-48
2023/08/09 04:22:53;;;;;;;1.45;0.70;;;;;;;24.72;37.63;98781.88;2088499;28;20048;-48
2023/08/09 04:23:54;;;;;;;2.03;0.70;;;;;;;24.70;37.70;98781.28;2087482;28;20041;-49
2023/08/09 04:24:55;;;;;;;1.08;0.60;;;;;;;24.72;37.25;98781.88;2086202;28;20411;-48
2023/08/09 04:25:57;;;;;;;1.80;0.60;;;;;;;24.71;37.32;98776.69;2087924;28;20049;-49
2023/08/09 04:26:59;;;;;;;1.70;0.70;;;;;;;24.72;37.54;98779.16;2087240;28;20143;-48
2023/08/09 04:28:01;;;;;;;1.45;0.60;;;;;;;24.71;37.82;98774.81;2086359;28;20048;-48
2023/08/09 04:29:02;;;;;;;1.92;0.93;;;;;;;24.71;37.61;98785.66;2086707;28;20043;-47
2023/08/09 04:30:09;;;;;;;4.80;1.02;;;;;;;24.64;37.52;98779.53;2085431;28;20052;-50
2023/08/09 04:31:09;;;;;;;5.97;1.17;;;;;;;24.55;37.86;98767.44;2085685;28;20044;-48
2023/08/09 04:32:12;;;;;;;1.67;0.70;;;;;;;24.47;37.90;98768.63;2086423;28;20090;-51
2023/08/09 04:33:12;;;;;;;2.97;1.33;;;;;;;24.48;37.88;98769.44;2085289;28;20136;-48
2023/08/09 04:34:14;;;;;;;1.33;1.00;;;;;;;24.50;37.95;98768.13;2087377;28;20047;-48
2023/08/09 04:35:15;;;;;;;3.47;1.10;;;;;;;24.45;38.08;98768.03;2087299;28;20056;-50
2023/08/09 04:36:17;;;;;;;1.55;0.90;;;;;;;24.41;38.00;98776.88;2088002;28;20484;-47
2023/08/09 04:37:18;;;;;;;1.30;0.60;;;;;;;24.38;38.35;98774.63;2083207;28;20052;-51
2023/08/09 04:38:20;;;;;;;2.83;1.00;;;;;;;24.37;38.49;98772.97;2082927;28;20063;-49
2023/08/09 04:39:23;;;;;;;4.45;2.42;;;;;;;24.38;38.20;98769.22;2085031;28;20139;-49
2023/08/09 04:40:25;;;;;;;1.40;0.73;;;;;;;24.42;38.16;98773.91;2084669;28;20070;-48
2023/08/09 04:41:26;;;;;;;1.40;0.60;;;;;;;24.43;38.16;98767.47;2084117;28;20052;-48
2023/08/09 04:42:27;;;;;;;1.23;0.68;;;;;;;24.48;37.94;98762.13;2085643;28;20084;-51
2023/08/09 04:43:29;;;;;;;1.42;0.65;;;;;;;24.53;37.78;98766.84;2086078;28;20056;-49
2023/08/09 04:44:30;;;;;;;4.03;1.02;;;;;;;24.54;38.02;98757.63;2083515;28;20045;-48
2023/08/09 04:45:34;;;;;;;7.68;0.98;;;;;;;24.52;38.27;98757.06;2086806;28;20564;-47
2023/08/09 04:46:35;;;;;;;3.65;0.88;;;;;;;24.50;38.05;98762.72;2086561;28;20080;-47
2023/08/09 04:47:36;;;;;;;2.22;1.05;;;;;;;24.51;37.81;98774.38;2085803;28;20045;-52
2023/08/09 04:48:39;;;;;;;0.70;0.60;;;;;;;24.48;37.87;98758.59;2086634;28;20048;-48
2023/08/09 04:49:40;;;;;;;0.68;0.68;;;;;;;24.46;38.19;98755.28;2085490;28;20044;-49
2023/08/09 04:50:42;;;;;;;2.85;0.80;;;;;;;24.51;37.92;98758.13;2084118;28;20106;-49
2023/08/09 04:51:43;;;;;;;1.50;1.02;;;;;;;24.47;38.19;98763.19;2084513;28;20620;-48
2023/08/09 04:52:45;;;;;;;0.93;0.60;;;;;;;24.47;38.30;98756.97;2086733;28;20094;-47